Time;durP1;ratioP1;P1;durP2;ratioP2;P2;SDS_P1;SDS_P2;PMS_P1;PMS_P2;Temp;Humidity;BMP_temperature;BMP_pressure;BME280_temperature;BME280_humidity;BME280_pressure;Samples;Min_cycle;Max_cycle;Signal;HPM_P1;HPM_P2
2023/02/22 00:02:26;;;;;;;28.20;3.88;;;;;;;14.21;48.39;101375.50;5035486;27;97124;-73
2023/02/22 00:04:53;;;;;;;29.35;3.45;;;;;;;14.11;48.79;101389.25;5031325;27;98448;-71
2023/02/22 00:07:20;;;;;;;25.35;3.95;;;;;;;14.51;48.03;101393.81;5029860;27;99426;-73
2023/02/22 00:09:46;;;;;;;26.55;3.50;;;;;;;14.38;48.25;101382.81;5033245;27;97928;-74
2023/02/22 00:12:13;;;;;;;29.00;3.80;;;;;;;14.21;48.60;101379.97;5027230;27;98895;-72
2023/02/22 00:14:41;;;;;;;29.92;3.97;;;;;;;13.99;49.50;101379.94;5032685;27;97619;-73
2023/02/22 00:17:11;;;;;;;28.17;4.13;;;;;;;14.25;49.27;101381.56;5031412;27;98914;-74
2023/02/22 00:19:38;;;;;;;24.02;3.75;;;;;;;14.08;49.77;101376.06;5031272;27;98834;-73
2023/02/22 00:22:04;;;;;;;20.63;3.63;;;;;;;14.15;48.93;101380.22;5034423;27;97061;-73
2023/02/22 00:24:34;;;;;;;23.95;5.25;;;;;;;14.19;48.79;101373.81;5030312;27;97172;-74
2023/02/22 00:27:02;;;;;;;22.65;3.63;;;;;;;14.09;49.54;101377.81;5030548;27;99238;-72
2023/02/22 00:29:28;;;;;;;25.05;3.83;;;;;;;14.05;49.04;101378.81;5032371;27;98820;-73
2023/02/22 00:31:55;;;;;;;24.00;4.03;;;;;;;14.16;49.11;101379.28;5030333;27;97872;-73
2023/02/22 00:34:23;;;;;;;29.58;3.75;;;;;;;13.86;49.44;101368.94;5021970;27;97049;-73
2023/02/22 00:36:50;;;;;;;29.45;3.42;;;;;;;14.06;49.33;101376.13;5028536;28;102114;-73
2023/02/22 00:39:17;;;;;;;28.48;3.55;;;;;;;13.88;49.38;101363.56;5028696;28;101257;-73
2023/02/22 00:41:44;;;;;;;21.90;3.28;;;;;;;13.69;49.78;101363.41;5032602;28;97110;-71
2023/02/22 00:44:10;;;;;;;22.75;3.22;;;;;;;13.67;50.29;101364.41;5019960;28;96951;-72
2023/02/22 00:46:37;;;;;;;25.85;3.47;;;;;;;13.30;51.39;101367.56;5031329;27;98866;-71
2023/02/22 00:49:04;;;;;;;21.40;3.40;;;;;;;13.58;50.58;101365.63;5029095;27;98867;-71
2023/02/22 00:51:32;;;;;;;27.77;3.40;;;;;;;13.65;50.44;101361.81;5033452;27;98031;-70
2023/02/22 00:53:59;;;;;;;28.27;4.03;;;;;;;13.37;51.13;101366.44;5030565;27;98622;-71
2023/02/22 00:56:25;;;;;;;26.52;4.05;;;;;;;13.52;51.34;101373.84;5031779;27;99822;-72
2023/02/22 00:58:52;;;;;;;28.77;3.60;;;;;;;13.44;51.65;101367.94;5027129;28;98822;-73
2023/02/22 01:01:18;;;;;;;15.50;3.17;;;;;;;13.41;51.53;101370.69;5032143;28;98570;-72
2023/02/22 01:03:44;;;;;;;24.33;3.65;;;;;;;13.38;52.01;101374.34;5043235;27;97143;-72
2023/02/22 01:06:11;;;;;;;27.40;4.30;;;;;;;13.20;52.74;101371.47;5037549;27;99134;-71
2023/02/22 01:08:38;;;;;;;17.40;3.83;;;;;;;13.26;52.71;101373.94;5024392;28;98663;-71
2023/02/22 01:11:05;;;;;;;27.90;3.88;;;;;;;13.06;53.13;101375.47;5033231;28;96792;-72
2023/02/22 01:13:33;;;;;;;21.38;3.25;;;;;;;12.96;53.65;101382.03;5029937;28;96956;-72
2023/02/22 01:15:59;;;;;;;21.38;3.63;;;;;;;13.29;52.89;101377.31;5027138;28;99074;-72
2023/02/22 01:18:26;;;;;;;25.60;4.28;;;;;;;13.27;52.18;101372.97;5029894;28;98891;-73
2023/02/22 01:20:52;;;;;;;31.80;3.50;;;;;;;13.13;53.02;101376.13;5021737;27;96833;-72
2023/02/22 01:23:18;;;;;;;31.65;3.45;;;;;;;13.19;53.07;101375.94;5029646;27;97246;-71
2023/02/22 01:25:46;;;;;;;22.60;3.13;;;;;;;13.29;52.62;101365.84;5021464;27;98890;-72
2023/02/22 01:28:14;;;;;;;27.00;3.78;;;;;;;13.18;52.58;101360.06;5026667;28;98094;-72
2023/02/22 01:30:40;;;;;;;29.77;3.90;;;;;;;13.24;52.80;101362.50;5032096;27;98894;-72
2023/02/22 01:33:07;;;;;;;32.25;4.55;;;;;;;13.29;52.90;101355.22;5028666;27;97146;-72
2023/02/22 01:35:35;;;;;;;24.30;3.10;;;;;;;13.31;52.86;101354.25;5026330;27;99176;-72
2023/02/22 01:38:01;;;;;;;28.52;4.35;;;;;;;12.99;53.04;101358.06;5022878;27;101420;-71
2023/02/22 01:40:31;;;;;;;21.13;3.50;;;;;;;13.05;52.90;101360.50;5026772;27;97316;-71
2023/02/22 01:43:01;;;;;;;24.75;3.72;;;;;;;12.80;53.28;101348.97;5030280;27;97010;-72
2023/02/22 01:45:52;;;;;;;25.08;3.63;;;;;;;12.69;53.85;101351.16;5028020;28;99210;-72
2023/02/22 01:48:24;;;;;;;26.42;3.72;;;;;;;12.61;53.97;101355.84;5025514;28;97803;-72
2023/02/22 01:50:55;;;;;;;20.60;3.58;;;;;;;12.50;53.78;101356.22;5032419;28;96835;-71
2023/02/22 01:53:25;;;;;;;27.05;4.78;;;;;;;12.85;52.86;101348.84;5029823;27;98010;-73
2023/02/22 01:55:54;;;;;;;22.10;3.35;;;;;;;12.71;53.73;101352.84;5027831;27;98960;-72
2023/02/22 01:58:27;;;;;;;20.50;3.08;;;;;;;12.63;53.89;101352.25;5030482;27;100533;-71
2023/02/22 02:00:54;;;;;;;28.17;4.10;;;;;;;12.54;54.12;101349.88;5033198;27;97355;-72
2023/02/22 02:03:26;;;;;;;30.38;3.72;;;;;;;12.42;54.79;101352.09;5032192;27;97176;-71
2023/02/22 02:05:56;;;;;;;28.73;4.03;;;;;;;12.40;54.67;101349.50;5028519;28;99251;-71
2023/02/22 02:08:34;;;;;;;21.73;3.75;;;;;;;12.43;54.88;101357.34;5029906;28;98948;-71
2023/02/22 02:11:02;;;;;;;31.42;3.70;;;;;;;12.35;55.05;101354.94;5024302;27;98711;-71
2023/02/22 02:13:30;;;;;;;23.15;2.88;;;;;;;12.46;54.69;101351.97;5030548;27;97311;-72
2023/02/22 02:15:58;;;;;;;29.42;4.78;;;;;;;12.37;55.17;101354.91;5030680;28;99063;-71
2023/02/22 02:18:26;;;;;;;27.60;3.58;;;;;;;12.43;54.78;101351.19;5026426;28;98938;-71
2023/02/22 02:21:10;;;;;;;27.80;3.72;;;;;;;12.37;55.45;101344.31;5026294;28;96806;-72
2023/02/22 02:24:21;;;;;;;32.10;3.78;;;;;;;12.66;55.42;101336.25;5028613;28;97247;-71
2023/02/22 02:27:10;;;;;;;28.25;4.13;;;;;;;12.67;55.72;101343.25;5024136;28;99395;-71
2023/02/22 02:30:17;;;;;;;28.27;3.80;;;;;;;12.79;54.92;101341.97;5023142;27;98995;-73
2023/02/22 02:32:55;;;;;;;25.75;4.00;;;;;;;12.72;54.91;101343.09;5021694;28;99786;-71
2023/02/22 02:35:30;;;;;;;23.58;3.22;;;;;;;12.77;55.08;101342.03;5029745;28;97679;-72
2023/02/22 02:38:04;;;;;;;23.30;3.28;;;;;;;12.71;55.45;101325.47;5027415;28;99350;-71
2023/02/22 02:40:38;;;;;;;24.27;3.72;;;;;;;12.67;55.40;101327.34;5026484;28;98755;-71
2023/02/22 02:43:13;;;;;;;23.67;3.70;;;;;;;12.88;54.94;101331.03;5026386;28;96957;-71
2023/02/22 02:45:44;;;;;;;27.45;3.63;;;;;;;12.71;55.33;101342.25;5028100;28;96843;-71
2023/02/22 02:48:13;;;;;;;24.08;3.90;;;;;;;12.87;54.88;101342.53;5024263;27;99127;-71
2023/02/22 02:50:44;;;;;;;24.67;4.55;;;;;;;12.85;54.69;101336.47;5028132;27;98806;-72
2023/02/22 02:53:15;;;;;;;24.33;3.35;;;;;;;12.95;54.59;101335.19;5029539;28;96822;-73
2023/02/22 02:55:43;;;;;;;34.10;3.80;;;;;;;12.56;55.84;101340.09;5022432;27;97389;-70
2023/02/22 02:58:18;;;;;;;29.05;4.15;;;;;;;12.74;56.12;101333.28;5026732;28;99472;-72
2023/02/22 03:00:45;;;;;;;24.63;3.83;;;;;;;12.45;57.03;101342.28;5031540;28;98845;-72
2023/02/22 03:03:38;;;;;;;22.05;3.05;;;;;;;12.46;56.19;101343.13;5022700;27;97744;-72
2023/02/22 03:06:26;;;;;;;24.08;3.78;;;;;;;12.46;56.52;101340.50;5026702;27;98651;-72
2023/02/22 03:09:01;;;;;;;27.88;3.50;;;;;;;12.51;56.63;101333.22;5027432;28;99080;-74
2023/02/22 03:11:35;;;;;;;30.17;3.85;;;;;;;12.40;56.45;101336.25;5027792;28;100097;-75
2023/02/22 03:14:11;;;;;;;26.50;3.00;;;;;;;12.62;56.06;101326.63;5027095;28;96997;-73
2023/02/22 03:16:46;;;;;;;34.53;3.30;;;;;;;12.55;56.48;101334.84;5028754;27;97404;-73
2023/02/22 03:19:21;;;;;;;29.88;4.13;;;;;;;12.70;56.05;101326.38;5026336;27;102915;-72
2023/02/22 03:21:55;;;;;;;24.45;3.17;;;;;;;12.38;56.97;101333.66;5023881;27;98751;-74
2023/02/22 03:24:27;;;;;;;23.85;3.40;;;;;;;12.54;56.45;101327.81;5028115;28;96820;-73
2023/02/22 03:27:01;;;;;;;20.63;3.67;;;;;;;12.46;56.87;101324.59;5028816;27;96914;-73
2023/02/22 03:29:35;;;;;;;20.00;3.67;;;;;;;12.68;56.46;101320.25;5029700;28;101053;-74
2023/02/22 03:32:05;;;;;;;23.02;3.17;;;;;;;12.70;56.51;101324.59;5031007;28;98686;-73
2023/02/22 03:34:35;;;;;;;23.42;2.78;;;;;;;12.73;56.50;101326.28;5020257;27;98922;-73
2023/02/22 03:37:06;;;;;;;26.35;4.20;;;;;;;12.59;56.96;101321.47;5027283;27;96948;-74
2023/02/22 03:39:36;;;;;;;21.58;3.55;;;;;;;12.90;56.32;101323.88;5027903;27;99486;-74
2023/02/22 03:42:06;;;;;;;26.10;4.75;;;;;;;12.61;57.35;101329.34;5028917;28;97513;-72
2023/02/22 03:44:36;;;;;;;24.70;3.80;;;;;;;12.64;57.26;101331.91;5028390;28;97330;-72
2023/02/22 03:47:12;;;;;;;23.60;3.53;;;;;;;12.79;56.75;101334.03;5023365;27;97702;-72
2023/02/22 03:49:46;;;;;;;24.20;3.90;;;;;;;12.55;57.89;101333.06;5027480;27;98888;-72
2023/02/22 03:52:13;;;;;;;22.27;3.63;;;;;;;12.71;57.75;101336.94;5029554;27;102587;-72
2023/02/22 03:54:40;;;;;;;25.00;3.33;;;;;;;12.90;57.61;101341.59;5022796;28;99243;-73
2023/02/22 03:57:11;;;;;;;26.08;3.63;;;;;;;12.62;58.83;101334.59;5026081;28;97319;-73
2023/02/22 03:59:39;;;;;;;35.83;3.65;;;;;;;12.90;57.98;101331.84;5021563;28;102027;-73
2023/02/22 04:02:05;;;;;;;19.00;3.35;;;;;;;12.82;58.59;101333.91;5023988;27;98966;-72
2023/02/22 04:04:32;;;;;;;27.80;3.47;;;;;;;12.76;58.63;101336.75;5025871;28;96847;-73
2023/02/22 04:07:00;;;;;;;24.45;3.88;;;;;;;12.70;59.28;101331.69;5029003;27;97706;-72
2023/02/22 04:09:26;;;;;;;23.88;3.75;;;;;;;12.60;59.44;101328.47;5027200;27;99111;-72
2023/02/22 04:11:52;;;;;;;24.40;3.15;;;;;;;12.70;59.21;101326.38;5032570;28;101414;-72
2023/02/22 04:14:19;;;;;;;21.27;3.22;;;;;;;12.78;58.86;101329.63;5024420;27;96817;-73
2023/02/22 04:16:45;;;;;;;29.05;3.85;;;;;;;12.54;59.83;101333.13;5030988;27;98880;-73
2023/02/22 04:19:12;;;;;;;24.60;3.00;;;;;;;12.67;59.48;101337.94;5029432;28;98939;-72
2023/02/22 04:21:38;;;;;;;28.58;3.90;;;;;;;12.70;59.35;101329.03;5032734;27;97353;-72
2023/02/22 04:24:06;;;;;;;27.27;3.70;;;;;;;12.51;59.70;101331.44;5027849;27;97578;-74
2023/02/22 04:26:33;;;;;;;24.65;3.45;;;;;;;12.62;59.53;101331.06;5034169;27;97226;-72
2023/02/22 04:28:59;;;;;;;20.38;3.88;;;;;;;12.43;59.92;101332.63;5027345;28;99725;-72
2023/02/22 04:31:25;;;;;;;23.63;3.35;;;;;;;12.34;60.16;101337.31;5029515;27;101133;-74
2023/02/22 04:33:52;;;;;;;30.30;3.55;;;;;;;12.59;59.48;101336.50;5029478;27;96804;-73
2023/02/22 04:36:20;;;;;;;34.63;3.97;;;;;;;12.84;58.87;101332.06;5025968;27;97651;-72
2023/02/22 04:38:47;;;;;;;24.05;3.17;;;;;;;12.73;58.78;101328.94;5027269;28;99336;-71
2023/02/22 04:41:17;;;;;;;30.48;3.97;;;;;;;12.70;59.07;101329.03;5030205;27;99017;-72
2023/02/22 04:43:43;;;;;;;29.80;4.93;;;;;;;12.54;59.46;101330.47;5031953;27;97068;-71
2023/02/22 04:46:09;;;;;;;28.08;4.30;;;;;;;12.35;59.88;101332.88;5031817;28;96917;-72
2023/02/22 04:48:36;;;;;;;23.55;3.53;;;;;;;12.46;59.79;101329.88;5027800;27;99162;-71
2023/02/22 04:51:02;;;;;;;29.63;4.25;;;;;;;12.35;60.14;101328.44;5027194;27;99765;-73
2023/02/22 04:53:28;;;;;;;37.25;4.15;;;;;;;12.46;59.70;101324.59;5024948;27;97172;-72
2023/02/22 04:55:55;;;;;;;25.08;3.85;;;;;;;12.53;59.58;101329.63;5027477;27;98349;-72
2023/02/22 04:58:23;;;;;;;28.67;3.92;;;;;;;12.32;60.06;101331.22;5027870;28;99483;-72
2023/02/22 05:00:49;;;;;;;26.42;3.63;;;;;;;12.57;59.51;101310.03;5031479;28;98939;-73
2023/02/22 05:03:16;;;;;;;37.35;4.45;;;;;;;12.53;59.58;101329.63;5028801;28;98633;-72
2023/02/22 05:05:42;;;;;;;23.63;4.20;;;;;;;12.24;60.39;101322.66;5030090;27;97256;-71
2023/02/22 05:08:08;;;;;;;26.00;3.55;;;;;;;12.71;59.40;101321.03;5027600;27;98949;-72
2023/02/22 05:10:35;;;;;;;33.60;4.72;;;;;;;12.65;59.46;101326.53;5031266;28;98725;-72
2023/02/22 05:13:01;;;;;;;28.00;3.78;;;;;;;12.74;59.35;101323.56;5027596;28;97189;-72
2023/02/22 05:15:29;;;;;;;21.63;3.90;;;;;;;13.12;58.16;101322.22;5026881;28;97241;-73
2023/02/22 05:17:55;;;;;;;26.00;3.65;;;;;;;12.80;58.78;101317.16;5026468;28;99033;-72
2023/02/22 05:20:26;;;;;;;25.08;3.72;;;;;;;12.66;59.54;101322.13;5030938;27;98840;-72
2023/02/22 05:22:54;;;;;;;28.77;3.78;;;;;;;12.69;59.26;101312.25;5024308;27;97566;-72
2023/02/22 05:25:21;;;;;;;28.33;4.25;;;;;;;12.65;59.65;101307.13;5019546;27;97712;-72
2023/02/22 05:27:51;;;;;;;31.23;4.07;;;;;;;12.32;60.69;101312.66;5024156;27;99322;-72
2023/02/22 05:30:17;;;;;;;30.95;4.28;;;;;;;12.44;60.52;101311.38;5028899;27;99979;-73
2023/02/22 05:32:46;;;;;;;30.83;4.32;;;;;;;12.70;59.78;101313.13;5028869;28;97319;-72
2023/02/22 05:35:13;;;;;;;22.95;3.65;;;;;;;12.67;59.91;101314.09;5027409;28;98741;-72
2023/02/22 05:37:40;;;;;;;27.33;4.60;;;;;;;12.51;60.29;101310.25;5026256;28;103089;-74
2023/02/22 05:40:07;;;;;;;27.77;4.68;;;;;;;13.00;59.00;101317.31;5029884;27;98855;-72
2023/02/22 05:42:33;;;;;;;30.00;4.70;;;;;;;12.95;58.75;101313.97;5028792;28;96717;-72
2023/02/22 05:45:00;;;;;;;29.75;4.75;;;;;;;12.79;59.62;101315.47;5020658;28;97650;-72
2023/02/22 05:47:27;;;;;;;30.20;4.47;;;;;;;12.72;59.86;101321.91;5031486;27;98976;-73
2023/02/22 05:49:55;;;;;;;23.67;4.07;;;;;;;12.72;59.88;101321.91;5028151;28;98825;-73
2023/02/22 05:52:21;;;;;;;32.83;4.75;;;;;;;12.74;59.64;101320.91;5026244;27;97017;-73
2023/02/22 05:54:48;;;;;;;38.28;5.07;;;;;;;12.83;59.58;101330.31;5021170;27;97418;-73
2023/02/22 05:57:14;;;;;;;31.77;7.82;;;;;;;12.65;60.21;101321.25;5021001;27;101565;-72
2023/02/22 05:59:41;;;;;;;23.77;4.18;;;;;;;12.94;59.47;101321.97;5025816;27;98951;-73
2023/02/22 06:02:08;;;;;;;27.58;4.30;;;;;;;12.92;59.55;101324.72;5029907;27;97948;-74
2023/02/22 06:04:35;;;;;;;26.63;4.22;;;;;;;13.12;58.97;101324.88;5020622;27;99104;-73
2023/02/22 06:07:02;;;;;;;29.20;4.20;;;;;;;13.21;58.75;101330.75;5028410;28;99097;-73
2023/02/22 06:09:29;;;;;;;28.50;3.83;;;;;;;12.83;58.79;101322.38;5021631;27;98073;-72
2023/02/22 06:11:55;;;;;;;24.15;3.47;;;;;;;13.01;58.71;101334.97;5020040;27;99531;-73
2023/02/22 06:14:23;;;;;;;25.15;4.47;;;;;;;13.21;57.84;101330.75;5025248;27;98947;-73
2023/02/22 06:16:52;;;;;;;23.90;3.92;;;;;;;13.35;57.50;101331.97;5030415;28;97678;-72
2023/02/22 06:19:19;;;;;;;28.13;3.78;;;;;;;12.91;58.65;101338.88;5031047;28;98786;-72
2023/02/22 06:21:49;;;;;;;29.70;4.15;;;;;;;12.77;58.53;101342.03;5027591;27;98892;-72
2023/02/22 06:24:17;;;;;;;33.08;4.70;;;;;;;12.87;58.74;101344.34;5023828;28;97273;-72
2023/02/22 06:26:43;;;;;;;19.63;3.83;;;;;;;13.05;58.42;101341.91;5028415;28;99281;-72
2023/02/22 06:29:10;;;;;;;23.95;4.38;;;;;;;13.13;58.17;101345.16;5029291;28;99434;-73
2023/02/22 06:31:36;;;;;;;27.05;4.15;;;;;;;13.07;58.32;101344.50;5031160;27;98679;-72
2023/02/22 06:34:03;;;;;;;33.55;4.03;;;;;;;13.25;57.59;101345.66;5022395;28;98903;-73
2023/02/22 06:36:30;;;;;;;22.88;3.92;;;;;;;13.06;57.62;101353.41;5023334;27;98928;-73
2023/02/22 06:38:56;;;;;;;23.73;4.13;;;;;;;12.88;58.44;101344.28;5026507;27;97614;-73
2023/02/22 06:41:24;;;;;;;31.55;5.07;;;;;;;13.37;57.60;101350.50;5031680;27;98207;-71
2023/02/22 06:43:51;;;;;;;22.30;4.07;;;;;;;13.19;57.53;101351.19;5028386;28;96913;-72
2023/02/22 06:46:18;;;;;;;27.55;4.95;;;;;;;13.29;57.56;101353.44;5024882;27;99479;-71
2023/02/22 06:48:44;;;;;;;32.97;4.82;;;;;;;13.21;57.43;101354.63;5037151;27;100442;-73
2023/02/22 06:51:11;;;;;;;23.63;4.68;;;;;;;13.51;56.68;101362.34;5033216;28;96693;-73
2023/02/22 06:53:38;;;;;;;29.45;4.72;;;;;;;13.48;56.40;101358.91;5032089;28;97394;-73
2023/02/22 06:56:05;;;;;;;25.25;4.53;;;;;;;13.46;56.62;101355.44;5031077;28;99093;-73
2023/02/22 06:58:32;;;;;;;30.63;4.80;;;;;;;13.40;56.29;101358.34;5033202;27;98100;-73
2023/02/22 07:01:01;;;;;;;38.40;5.40;;;;;;;13.25;56.31;101364.22;5033588;27;97272;-72
2023/02/22 07:03:28;;;;;;;30.85;5.57;;;;;;;13.32;56.27;101366.63;5026888;27;97096;-73
2023/02/22 07:05:55;;;;;;;36.63;6.45;;;;;;;13.45;56.21;101367.03;5030903;28;98961;-73
2023/02/22 07:08:21;;;;;;;42.92;6.68;;;;;;;13.58;55.63;101373.59;5029222;27;98910;-71
2023/02/22 07:10:49;;;;;;;29.70;5.07;;;;;;;13.33;56.32;101368.31;5032559;28;96856;-72
2023/02/22 07:13:15;;;;;;;30.05;5.47;;;;;;;13.65;55.54;101372.44;5030642;27;96847;-72
2023/02/22 07:15:43;;;;;;;30.00;5.57;;;;;;;13.67;55.05;101367.03;5030369;28;98171;-72
2023/02/22 07:18:10;;;;;;;31.77;4.85;;;;;;;13.70;55.21;101362.50;5030080;28;101816;-72
2023/02/22 07:20:37;;;;;;;28.13;5.53;;;;;;;13.60;55.33;101371.72;5028765;28;98242;-73
2023/02/22 07:23:04;;;;;;;27.85;4.43;;;;;;;13.50;55.00;101365.91;5029501;27;96823;-72
2023/02/22 07:25:31;;;;;;;35.10;5.85;;;;;;;13.62;55.13;101371.69;5025514;27;99235;-72
2023/02/22 07:27:58;;;;;;;30.95;4.97;;;;;;;13.65;54.81;101368.91;5025414;27;99248;-74
2023/02/22 07:30:29;;;;;;;33.20;4.47;;;;;;;13.94;54.27;101365.97;5029102;27;96802;-73
2023/02/22 07:32:59;;;;;;;30.30;4.75;;;;;;;13.90;54.19;101367.91;5029037;28;96860;-74
2023/02/22 07:35:28;;;;;;;28.98;4.22;;;;;;;13.93;54.17;101374.88;5025925;28;98940;-74
2023/02/22 07:37:55;;;;;;;32.50;5.18;;;;;;;13.80;54.31;101366.53;5022244;27;98832;-73
2023/02/22 07:40:23;;;;;;;31.85;5.30;;;;;;;13.89;54.20;101367.97;5034852;28;97397;-72
2023/02/22 07:42:58;;;;;;;30.92;5.35;;;;;;;14.07;53.56;101372.53;5031791;27;96823;-72
2023/02/22 07:45:26;;;;;;;30.10;5.85;;;;;;;13.81;54.47;101376.22;5030568;27;98516;-73
2023/02/22 07:47:53;;;;;;;41.67;13.38;;;;;;;13.79;54.46;101370.09;5035118;28;99175;-71
2023/02/22 07:50:22;;;;;;;39.80;5.57;;;;;;;13.93;53.98;101375.75;5026106;28;96839;-72
2023/02/22 07:52:54;;;;;;;27.23;5.07;;;;;;;14.06;53.69;101375.25;5035187;28;96916;-72
2023/02/22 07:55:22;;;;;;;32.50;6.25;;;;;;;14.01;53.84;101374.56;5026687;27;100926;-74
2023/02/22 07:57:50;;;;;;;23.38;5.32;;;;;;;13.79;53.96;101371.88;5030069;27;99346;-74
2023/02/22 08:00:22;;;;;;;38.55;7.63;;;;;;;14.03;53.68;101375.38;5028782;27;96841;-73
2023/02/22 08:02:49;;;;;;;28.50;6.97;;;;;;;14.12;53.30;101375.88;5025579;27;96866;-73
2023/02/22 08:05:15;;;;;;;36.00;7.35;;;;;;;13.81;53.88;101370.03;5031569;27;99335;-72
2023/02/22 08:07:43;;;;;;;27.92;6.95;;;;;;;13.80;54.10;101379.81;5033714;27;99473;-73
2023/02/22 08:10:10;;;;;;;41.63;7.57;;;;;;;13.92;53.97;101373.13;5028062;27;97539;-72
2023/02/22 08:12:38;;;;;;;27.95;7.63;;;;;;;13.94;53.90;101382.78;5030972;28;97278;-73
2023/02/22 08:15:05;;;;;;;33.58;8.23;;;;;;;13.98;53.54;101379.06;5023960;28;99106;-72
2023/02/22 08:17:31;;;;;;;29.58;7.70;;;;;;;13.71;54.39;101385.50;5026989;27;97725;-72
2023/02/22 08:19:58;;;;;;;44.03;9.70;;;;;;;13.75;54.02;101379.13;5028150;27;98891;-73
2023/02/22 08:22:26;;;;;;;37.35;8.07;;;;;;;13.72;54.23;101379.22;5027493;27;97266;-73
2023/02/22 08:24:54;;;;;;;43.15;10.60;;;;;;;13.76;53.93;101375.53;5024959;28;99747;-72
2023/02/22 08:27:23;;;;;;;30.08;7.80;;;;;;;14.05;53.19;101384.13;5023888;28;99430;-72
2023/02/22 08:29:50;;;;;;;34.38;7.78;;;;;;;14.08;53.04;101373.41;5026293;27;98831;-72
2023/02/22 08:32:25;;;;;;;34.78;7.45;;;;;;;13.82;53.59;101369.13;5021669;27;97842;-73
2023/02/22 08:34:51;;;;;;;30.25;6.57;;;;;;;13.86;53.29;101379.56;5023881;28;98938;-73
2023/02/22 08:37:19;;;;;;;37.47;8.15;;;;;;;13.89;53.42;101373.28;5019786;27;100308;-73
2023/02/22 08:39:45;;;;;;;35.08;7.78;;;;;;;14.16;52.72;101377.50;5024916;28;97915;-73
2023/02/22 08:42:13;;;;;;;32.30;7.40;;;;;;;14.48;52.15;101378.88;5025486;28;96833;-73
2023/02/22 08:44:41;;;;;;;36.55;7.15;;;;;;;14.09;53.19;101377.81;5023788;28;99172;-73
2023/02/22 08:47:07;;;;;;;36.30;5.63;;;;;;;14.44;51.97;101371.94;5025985;27;98951;-73
2023/02/22 08:49:34;;;;;;;36.22;6.18;;;;;;;14.32;52.36;101369.75;5021920;27;97121;-74
2023/02/22 08:52:00;;;;;;;33.70;5.63;;;;;;;14.24;52.40;101374.53;5027933;28;98814;-74
2023/02/22 08:54:27;;;;;;;36.25;5.20;;;;;;;14.34;52.19;101370.56;5026347;28;99237;-71
2023/02/22 08:56:54;;;;;;;30.05;5.38;;;;;;;14.14;52.45;101374.03;5023307;27;98974;-75
2023/02/22 08:59:22;;;;;;;37.78;5.88;;;;;;;14.43;51.92;101375.53;5020195;28;98740;-73
2023/02/22 09:01:48;;;;;;;30.30;5.07;;;;;;;14.58;51.44;101364.25;5020872;27;99180;-74
2023/02/22 09:04:14;;;;;;;28.50;5.55;;;;;;;14.67;50.91;101374.50;5017483;27;99021;-73
2023/02/22 09:06:42;;;;;;;26.05;4.70;;;;;;;14.57;51.14;101377.63;5024311;27;102008;-74
2023/02/22 09:09:11;;;;;;;34.75;5.90;;;;;;;14.38;51.56;101373.97;5033391;27;97329;-74
2023/02/22 09:11:38;;;;;;;26.65;4.97;;;;;;;14.48;51.83;101370.03;5033864;27;96767;-72
2023/02/22 09:14:04;;;;;;;36.45;5.85;;;;;;;14.81;50.77;101367.72;5027546;27;99175;-73
2023/02/22 09:16:32;;;;;;;33.30;5.15;;;;;;;14.80;50.82;101369.53;5031925;27;98871;-73
2023/02/22 09:18:58;;;;;;;30.88;6.10;;;;;;;14.71;50.84;101373.44;5033968;28;97252;-71
2023/02/22 09:21:25;;;;;;;25.50;4.78;;;;;;;14.76;50.45;101375.91;5034036;28;96791;-72
2023/02/22 09:23:53;;;;;;;28.27;4.80;;;;;;;14.90;50.38;101367.34;5019853;28;99602;-71
2023/02/22 09:26:22;;;;;;;33.00;5.30;;;;;;;14.69;50.18;101372.66;5019189;27;98696;-73
2023/02/22 09:28:48;;;;;;;25.38;4.75;;;;;;;14.77;50.30;101367.84;5020956;27;97157;-72
2023/02/22 09:31:15;;;;;;;30.52;5.10;;;;;;;14.81;50.12;101368.59;5032861;27;97183;-73
2023/02/22 09:33:43;;;;;;;30.33;4.32;;;;;;;14.87;50.00;101372.78;5027451;28;98819;-72
2023/02/22 09:36:10;;;;;;;33.80;5.47;;;;;;;14.89;50.56;101373.59;5029143;28;98816;-73
2023/02/22 09:38:36;;;;;;;33.33;5.72;;;;;;;14.91;49.93;101372.56;5027626;27;96883;-72
2023/02/22 09:41:13;;;;;;;36.65;5.18;;;;;;;15.07;49.18;101378.97;5031860;27;97110;-73
2023/02/22 09:43:48;;;;;;;27.10;4.47;;;;;;;15.41;48.29;101369.47;5023037;27;101310;-72
2023/02/22 09:46:29;;;;;;;26.67;4.70;;;;;;;15.49;47.66;101360.16;5028500;27;98437;-72
2023/02/22 09:49:01;;;;;;;27.70;4.68;;;;;;;15.26;48.56;101359.50;5026255;27;96858;-73
2023/02/22 09:51:34;;;;;;;24.40;4.40;;;;;;;15.20;48.12;101355.31;5019056;28;99159;-71
2023/02/22 09:54:04;;;;;;;28.67;4.93;;;;;;;15.35;47.94;101351.97;5031579;27;98891;-73
2023/02/22 09:56:33;;;;;;;30.17;5.00;;;;;;;15.38;47.23;101357.16;5018644;27;100844;-71
2023/02/22 09:59:02;;;;;;;26.15;4.43;;;;;;;15.52;47.34;101352.09;5021125;28;98878;-72
2023/02/22 10:01:32;;;;;;;33.72;4.28;;;;;;;15.51;46.72;101353.00;5027617;27;97271;-73
2023/02/22 10:04:10;;;;;;;28.48;3.83;;;;;;;15.53;46.44;101352.97;5028425;28;98883;-72
2023/02/22 10:06:39;;;;;;;24.65;4.32;;;;;;;15.32;46.57;101354.75;5027160;28;98828;-71
2023/02/22 10:09:07;;;;;;;28.88;4.57;;;;;;;15.43;46.96;101349.81;5028285;28;96931;-71
2023/02/22 10:11:52;;;;;;;27.67;3.95;;;;;;;15.85;45.92;101351.44;5024922;27;97712;-72
2023/02/22 10:14:51;;;;;;;32.45;5.70;;;;;;;15.66;45.57;101355.91;5017450;27;99642;-72
2023/02/22 10:17:28;;;;;;;22.35;4.57;;;;;;;15.72;45.63;101347.63;5026896;28;99190;-71
2023/02/22 10:20:12;;;;;;;31.38;4.18;;;;;;;15.77;45.47;101343.81;5024817;28;98113;-72
2023/02/22 10:22:51;;;;;;;25.45;3.92;;;;;;;15.79;45.10;101351.72;5024456;28;97510;-71
2023/02/22 10:25:21;;;;;;;32.30;4.35;;;;;;;16.28;44.39;101347.53;5027006;27;99272;-71
2023/02/22 10:27:55;;;;;;;24.90;4.05;;;;;;;16.26;43.15;101342.31;5026123;27;98797;-71
2023/02/22 10:30:24;;;;;;;21.73;3.33;;;;;;;15.99;44.19;101346.31;5020378;28;98055;-73
2023/02/22 10:32:57;;;;;;;26.35;4.05;;;;;;;15.85;44.18;101343.44;5021476;27;97835;-73
2023/02/22 10:35:28;;;;;;;25.65;3.78;;;;;;;15.72;44.31;101342.31;5018069;27;99357;-71
2023/02/22 10:37:59;;;;;;;27.77;4.40;;;;;;;15.55;45.25;101343.09;5018989;27;98856;-71
2023/02/22 10:40:31;;;;;;;24.02;4.18;;;;;;;15.57;45.37;101341.22;5025104;28;97526;-73
2023/02/22 10:43:01;;;;;;;27.40;3.58;;;;;;;15.76;45.08;101342.06;5031701;28;97516;-72
2023/02/22 10:45:31;;;;;;;21.17;3.90;;;;;;;16.05;44.73;101345.16;5027559;28;99519;-71
2023/02/22 10:48:01;;;;;;;25.63;4.03;;;;;;;15.83;44.83;101339.97;5028910;27;99282;-71
2023/02/22 10:50:31;;;;;;;20.70;4.20;;;;;;;15.75;45.54;101339.50;5019975;28;98800;-72
2023/02/22 10:52:58;;;;;;;20.60;3.25;;;;;;;15.74;45.29;101335.09;5021105;27;98878;-72
2023/02/22 10:55:24;;;;;;;32.10;5.18;;;;;;;16.06;45.10;101339.75;5019917;27;99650;-70
2023/02/22 10:57:59;;;;;;;30.33;4.47;;;;;;;15.87;45.25;101336.25;5027414;27;97794;-71
2023/02/22 11:00:29;;;;;;;31.85;5.88;;;;;;;15.63;45.58;101334.72;5030173;28;96805;-72
2023/02/22 11:02:58;;;;;;;22.42;3.63;;;;;;;15.75;45.86;101339.50;5031228;28;96939;-71
2023/02/22 11:05:30;;;;;;;23.58;4.50;;;;;;;15.91;45.59;101344.00;5023072;27;98583;-72
2023/02/22 11:08:16;;;;;;;25.80;4.20;;;;;;;15.88;45.83;101332.66;5023436;27;100146;-72
2023/02/22 11:10:43;;;;;;;27.83;3.92;;;;;;;15.54;46.06;101328.91;5023450;27;96802;-72
2023/02/22 11:13:28;;;;;;;30.15;4.90;;;;;;;15.82;45.93;101331.13;5026702;27;97624;-73
2023/02/22 11:15:58;;;;;;;26.30;4.32;;;;;;;15.93;45.51;101327.97;5032562;28;98776;-70
2023/02/22 11:18:31;;;;;;;31.48;4.50;;;;;;;15.74;45.88;101333.31;5027348;27;99061;-71
2023/02/22 11:21:09;;;;;;;29.98;4.93;;;;;;;15.67;46.01;101321.22;5031918;28;98414;-71
2023/02/22 11:23:38;;;;;;;22.02;4.20;;;;;;;15.89;45.26;101332.56;5022080;27;97099;-71
2023/02/22 11:26:08;;;;;;;24.35;4.22;;;;;;;15.62;45.72;101320.53;5026635;28;99244;-71
2023/02/22 11:28:36;;;;;;;22.42;3.80;;;;;;;15.61;45.90;101321.50;5034222;28;100583;-71